Flight Track Log - Related Links

Times and Time Zones

All times are in EDT time to prevent confusion due to time zone crossing. See the CTL13 flight status page for this flight to view local times or setup timezone preferences in your user account.

Time Position Orientation Groundspeed Altitude Reporting Facility
EDT Latitude Longitude Course Direction KTS MPH feet Rate Location/Type
Sat 02:17:33 AM 37.4833 -77.3500 218° Southwest 119 137 1,400  Level Potomac TRACON
Sat 02:18:33 AM 37.4500 -77.3833 218° Southwest 134 154 2,400 950 Climbing Potomac TRACON
Sat 02:19:33 AM 37.4333 -77.4333 247° West 140 161 3,300 800 Climbing Potomac TRACON
Sat 02:20:33 AM 37.4167 -77.4667 238° Southwest 154 177 4,000 687 Climbing Potomac TRACON
Sat 02:21:44 AM 37.3922 -77.5183 239° Southwest 156 180 4,800 692 Climbing Washington Center
Sat 02:22:43 AM 37.3728 -77.5622 241° Southwest 156 180 5,500 605 Climbing Washington Center
Sat 02:23:43 AM 37.3492 -77.6086 237° Southwest 149 171 6,000 200 Climbing Washington Center
Sat 02:24:43 AM 37.3253 -77.6578 239° Southwest 170 196 5,900  Descending Washington Center
Sat 02:25:43 AM 37.3014 -77.7092 240° Southwest 170 196 6,000 50 Climbing Washington Center
Sat 02:26:43 AM 37.2778 -77.7583 239° Southwest 170 196 6,000  Level Washington Center
Sat 02:27:43 AM 37.2539 -77.8122 241° Southwest 170 196 6,000 -50 Level Washington Center
Sat 02:28:43 AM 37.2297 -77.8664 241° Southwest 175 201 5,900  Descending Washington Center
Sat 02:29:43 AM 37.2039 -77.9178 238° Southwest 175 201 6,000 50 Climbing Washington Center
Sat 02:30:44 AM 37.1819 -77.9667 241° Southwest 175 201 6,000  Level Washington Center
Sat 02:31:44 AM 37.1517 -78.0256 237° Southwest 181 208 6,000  Level Washington Center
Sat 02:32:43 AM 37.1275 -78.0769 239° Southwest 181 208 6,000  Level Washington Center
Sat 02:33:44 AM 37.1014 -78.1256 236° Southwest 181 208 6,000  Level Washington Center
Sat 02:34:44 AM 37.0692 -78.1714 229° Southwest 181 208 6,000  Level Washington Center
Sat 02:35:46 AM 37.0350 -78.2144 225° Southwest 181 208 6,000  Level Washington Center
Sat 02:36:43 AM 37.0050 -78.2525 225° Southwest 181 208 6,000  Level Washington Center
Sat 02:37:43 AM 36.9725 -78.2981 228° Southwest 181 208 6,000  Level Washington Center
Sat 02:38:44 AM 36.9361 -78.3436 225° Southwest 181 208 6,000  Level Washington Center
Sat 02:39:43 AM 36.8997 -78.3867 223° Southwest 181 208 6,000  Level Washington Center
Sat 02:40:44 AM 36.8694 -78.4322 230° Southwest 176 203 6,000  Level Washington Center
Sat 02:41:43 AM 36.8350 -78.4725 223° Southwest 181 208 6,000  Level Washington Center
Sat 02:42:46 AM 36.8028 -78.5128 225° Southwest 181 208 6,000  Level Washington Center
Sat 02:43:44 AM 36.7683 -78.5556 225° Southwest 181 208 6,000  Level Washington Center
Sat 02:44:43 AM 36.7358 -78.5983 227° Southwest 181 208 6,000 -50 Level Washington Center
Sat 02:45:43 AM 36.7014 -78.6436 227° Southwest 176 203 5,900  Descending Washington Center
Sat 02:46:45 AM 36.6625 -78.6914 225° Southwest 176 203 6,000 49 Climbing Washington Center
Sat 02:47:45 AM 36.6300 -78.7392 230° Southwest 190 219 6,000  Level Washington Center
Sat 02:48:44 AM 36.5956 -78.7844 227° Southwest 184 212 6,000  Level Washington Center
Sat 02:49:45 AM 36.5631 -78.8269 226° Southwest 184 212 6,000 -202 Level Washington Center
Sat 02:50:43 AM 36.5306 -78.8722 228° Southwest 184 212 5,600 -559 Descending Washington Center
Sat 02:51:43 AM 36.4936 -78.9197 226° Southwest 189 217 4,900 -600 Descending Washington Center
Sat 02:52:43 AM 36.4569 -78.9647 225° Southwest 189 217 4,400 -500 Descending Washington Center
Sat 02:53:43 AM 36.4203 -79.0094 224° Southwest 189 217 3,900 -200 Descending Washington Center
Sat 02:54:43 AM 36.3881 -79.0442 221° Southwest 179 206 4,000 50 Climbing Washington Center
Sat 02:55:43 AM 36.3533 -79.0917 228° Southwest 174 200 4,000  Level Washington Center
Sat 02:57:51 AM 36.2869 -79.1758 226° Southwest 165 190 4,000  Level Atlanta Center
Sat 02:58:51 AM 36.2544 -79.2169 226° Southwest 165 190 4,000  Level Atlanta Center
Sat 02:59:51 AM 36.2206 -79.2614 227° Southwest 165 190 4,000  Level Atlanta Center
Sat 03:01:00 AM 36.1764 -79.2973 238° Southwest  Level FlightAware Approximate
Sat 03:08:00 AM 36.0497 -79.4730 219° Southwest  Level Estimated
Sat 03:09:00 AM 36.0497 -79.4730 219° Southwest  Level Estimated
Sat 03:10:00 AM 36.0497 -79.4730 219° Southwest  Level Estimated
Sat 03:11:00 AM 36.0497 -79.4730 219° Southwest  Level Estimated
Sat 03:12:00 AM 36.0497 -79.4730 219° Southwest  Level Estimated
Sat 03:13:00 AM 36.0497 -79.4730 219° Southwest  Level Estimated
Sat 03:14:00 AM 36.0497 -79.4730 219° Southwest  Level Estimated

Login

Don't have an account? Register now (free) for customized features, flight alerts, and more!